sensor_id;sensor_type;location;lat;lon;timestamp;temperature;humidity
70550;DHT22;58101;48.658;2.328;2023-07-02T00:03:39;17.40;90.40
70550;DHT22;58101;48.658;2.328;2023-07-02T00:06:05;17.50;90.50
70550;DHT22;58101;48.658;2.328;2023-07-02T00:08:42;17.30;90.60
70550;DHT22;58101;48.658;2.328;2023-07-02T00:11:22;17.20;91.30
70550;DHT22;58101;48.658;2.328;2023-07-02T00:13:48;17.20;91.50
70550;DHT22;58101;48.658;2.328;2023-07-02T00:16:29;17.20;91.60
70550;DHT22;58101;48.658;2.328;2023-07-02T00:18:54;17.20;91.60
70550;DHT22;58101;48.658;2.328;2023-07-02T00:21:39;17.10;92.20
70550;DHT22;58101;48.658;2.328;2023-07-02T00:24:06;17.10;92.30
70550;DHT22;58101;48.658;2.328;2023-07-02T00:26:31;17.10;92.50
70550;DHT22;58101;48.658;2.328;2023-07-02T00:29:06;17.10;92.80
70550;DHT22;58101;48.658;2.328;2023-07-02T00:31:36;17.10;93.20
70550;DHT22;58101;48.658;2.328;2023-07-02T00:34:03;17.00;93.50
70550;DHT22;58101;48.658;2.328;2023-07-02T00:36:30;17.00;94.20
70550;DHT22;58101;48.658;2.328;2023-07-02T00:38:56;16.90;93.90
70550;DHT22;58101;48.658;2.328;2023-07-02T00:41:22;16.90;94.40
70550;DHT22;58101;48.658;2.328;2023-07-02T00:43:48;16.80;95.10
70550;DHT22;58101;48.658;2.328;2023-07-02T00:46:15;16.60;95.80
70550;DHT22;58101;48.658;2.328;2023-07-02T00:48:54;16.60;96.40
70550;DHT22;58101;48.658;2.328;2023-07-02T00:53:48;16.60;97.00
70550;DHT22;58101;48.658;2.328;2023-07-02T00:56:14;16.50;97.30
70550;DHT22;58101;48.658;2.328;2023-07-02T00:58:42;16.50;97.90
70550;DHT22;58101;48.658;2.328;2023-07-02T01:01:22;16.50;98.20
70550;DHT22;58101;48.658;2.328;2023-07-02T01:04:00;16.40;98.20
70550;DHT22;58101;48.658;2.328;2023-07-02T01:06:38;16.40;98.70
70550;DHT22;58101;48.658;2.328;2023-07-02T01:09:07;16.40;98.70
70550;DHT22;58101;48.658;2.328;2023-07-02T01:14:58;16.40;99.00
70550;DHT22;58101;48.658;2.328;2023-07-02T01:17:43;16.30;99.70
70550;DHT22;58101;48.658;2.328;2023-07-02T01:20:10;16.30;99.90
70550;DHT22;58101;48.658;2.328;2023-07-02T01:22:37;16.20;99.90
70550;DHT22;58101;48.658;2.328;2023-07-02T01:25:04;16.20;99.90
70550;DHT22;58101;48.658;2.328;2023-07-02T01:27:34;16.20;99.90
70550;DHT22;58101;48.658;2.328;2023-07-02T01:30:08;16.10;99.90
70550;DHT22;58101;48.658;2.328;2023-07-02T01:32:41;16.10;99.90
70550;DHT22;58101;48.658;2.328;2023-07-02T01:35:10;16.10;99.90
70550;DHT22;58101;48.658;2.328;2023-07-02T01:37:38;16.10;99.90
70550;DHT22;58101;48.658;2.328;2023-07-02T01:40:09;16.10;99.90
70550;DHT22;58101;48.658;2.328;2023-07-02T01:42:35;16.10;99.90
70550;DHT22;58101;48.658;2.328;2023-07-02T01:45:00;16.00;99.90
70550;DHT22;58101;48.658;2.328;2023-07-02T01:51:03;15.80;99.90
70550;DHT22;58101;48.658;2.328;2023-07-02T01:53:51;15.90;99.90
70550;DHT22;58101;48.658;2.328;2023-07-02T01:56:22;15.90;99.90
70550;DHT22;58101;48.658;2.328;2023-07-02T01:58:48;15.90;99.90
70550;DHT22;58101;48.658;2.328;2023-07-02T02:01:45;15.80;99.90
70550;DHT22;58101;48.658;2.328;2023-07-02T02:04:18;15.90;99.90
70550;DHT22;58101;48.658;2.328;2023-07-02T02:06:47;15.80;99.90
70550;DHT22;58101;48.658;2.328;2023-07-02T02:09:12;15.70;99.90
70550;DHT22;58101;48.658;2.328;2023-07-02T02:11:43;15.80;99.90
70550;DHT22;58101;48.658;2.328;2023-07-02T02:14:12;15.60;99.90
70550;DHT22;58101;48.658;2.328;2023-07-02T02:16:37;15.60;99.90
70550;DHT22;58101;48.658;2.328;2023-07-02T02:19:03;15.60;99.90
70550;DHT22;58101;48.658;2.328;2023-07-02T02:24:06;15.50;99.90
70550;DHT22;58101;48.658;2.328;2023-07-02T02:26:35;15.50;99.90
70550;DHT22;58101;48.658;2.328;2023-07-02T02:29:04;15.50;99.90
70550;DHT22;58101;48.658;2.328;2023-07-02T02:31:29;15.40;99.90
70550;DHT22;58101;48.658;2.328;2023-07-02T02:33:56;15.40;99.90
70550;DHT22;58101;48.658;2.328;2023-07-02T02:36:21;15.30;99.90
70550;DHT22;58101;48.658;2.328;2023-07-02T02:38:50;15.40;99.90
70550;DHT22;58101;48.658;2.328;2023-07-02T02:41:16;15.40;99.90
70550;DHT22;58101;48.658;2.328;2023-07-02T02:43:44;15.20;99.90
70550;DHT22;58101;48.658;2.328;2023-07-02T02:46:25;15.10;99.90
70550;DHT22;58101;48.658;2.328;2023-07-02T02:48:51;15.20;99.90
70550;DHT22;58101;48.658;2.328;2023-07-02T02:51:17;15.20;99.90
70550;DHT22;58101;48.658;2.328;2023-07-02T02:53:45;15.10;99.90
70550;DHT22;58101;48.658;2.328;2023-07-02T02:56:14;15.20;99.90
70550;DHT22;58101;48.658;2.328;2023-07-02T02:58:40;15.10;99.90
70550;DHT22;58101;48.658;2.328;2023-07-02T03:01:08;15.00;99.90
70550;DHT22;58101;48.658;2.328;2023-07-02T03:03:38;15.00;99.90
70550;DHT22;58101;48.658;2.328;2023-07-02T03:06:05;15.00;99.90
70550;DHT22;58101;48.658;2.328;2023-07-02T03:08:33;14.90;99.90
70550;DHT22;58101;48.658;2.328;2023-07-02T03:10:59;14.90;99.90
70550;DHT22;58101;48.658;2.328;2023-07-02T03:13:25;14.90;99.90
70550;DHT22;58101;48.658;2.328;2023-07-02T03:16:03;14.90;99.90
70550;DHT22;58101;48.658;2.328;2023-07-02T03:18:28;14.90;99.90
70550;DHT22;58101;48.658;2.328;2023-07-02T03:21:39;15.00;99.90
70550;DHT22;58101;48.658;2.328;2023-07-02T03:23:49;14.90;99.90
70550;DHT22;58101;48.658;2.328;2023-07-02T03:26:14;14.90;99.90
70550;DHT22;58101;48.658;2.328;2023-07-02T03:29:14;14.90;99.90
70550;DHT22;58101;48.658;2.328;2023-07-02T03:31:46;14.90;99.90
70550;DHT22;58101;48.658;2.328;2023-07-02T03:34:12;14.80;99.90
70550;DHT22;58101;48.658;2.328;2023-07-02T03:36:38;14.80;99.90
70550;DHT22;58101;48.658;2.328;2023-07-02T03:39:04;14.80;99.90
70550;DHT22;58101;48.658;2.328;2023-07-02T03:41:30;14.70;99.90
70550;DHT22;58101;48.658;2.328;2023-07-02T03:43:58;14.70;99.90
70550;DHT22;58101;48.658;2.328;2023-07-02T03:46:24;14.70;99.90
70550;DHT22;58101;48.658;2.328;2023-07-02T03:48:50;14.60;99.90
70550;DHT22;58101;48.658;2.328;2023-07-02T03:51:33;14.60;99.90
70550;DHT22;58101;48.658;2.328;2023-07-02T03:53:59;14.60;99.90
70550;DHT22;58101;48.658;2.328;2023-07-02T03:56:25;14.60;99.90
70550;DHT22;58101;48.658;2.328;2023-07-02T03:58:52;14.60;99.90
70550;DHT22;58101;48.658;2.328;2023-07-02T04:01:20;14.60;99.90
70550;DHT22;58101;48.658;2.328;2023-07-02T04:03:50;14.70;99.90
70550;DHT22;58101;48.658;2.328;2023-07-02T04:06:29;14.70;99.90
70550;DHT22;58101;48.658;2.328;2023-07-02T04:09:14;14.70;99.90
70550;DHT22;58101;48.658;2.328;2023-07-02T04:15:02;14.70;99.90
70550;DHT22;58101;48.658;2.328;2023-07-02T04:17:28;14.70;99.90
70550;DHT22;58101;48.658;2.328;2023-07-02T04:19:54;14.70;99.90
70550;DHT22;58101;48.658;2.328;2023-07-02T04:22:20;14.70;99.90
70550;DHT22;58101;48.658;2.328;2023-07-02T04:27:55;15.00;99.90
70550;DHT22;58101;48.658;2.328;2023-07-02T04:30:22;14.80;99.90
70550;DHT22;58101;48.658;2.328;2023-07-02T04:32:48;14.80;99.90
70550;DHT22;58101;48.658;2.328;2023-07-02T04:35:19;14.80;99.90
70550;DHT22;58101;48.658;2.328;2023-07-02T04:37:46;14.80;99.90
70550;DHT22;58101;48.658;2.328;2023-07-02T04:40:11;14.80;99.90
70550;DHT22;58101;48.658;2.328;2023-07-02T04:42:41;14.80;99.90
70550;DHT22;58101;48.658;2.328;2023-07-02T04:45:18;14.80;99.90
70550;DHT22;58101;48.658;2.328;2023-07-02T04:47:43;14.90;99.90
70550;DHT22;58101;48.658;2.328;2023-07-02T04:50:46;14.90;99.90
70550;DHT22;58101;48.658;2.328;2023-07-02T04:53:12;15.00;99.90
70550;DHT22;58101;48.658;2.328;2023-07-02T04:58:22;15.00;99.90
70550;DHT22;58101;48.658;2.328;2023-07-02T05:00:47;15.00;99.90
70550;DHT22;58101;48.658;2.328;2023-07-02T05:03:13;15.10;99.90
70550;DHT22;58101;48.658;2.328;2023-07-02T05:05:39;15.20;99.90
70550;DHT22;58101;48.658;2.328;2023-07-02T05:08:14;15.20;99.90
70550;DHT22;58101;48.658;2.328;2023-07-02T05:10:40;15.20;99.90
70550;DHT22;58101;48.658;2.328;2023-07-02T05:13:05;15.30;99.90
70550;DHT22;58101;48.658;2.328;2023-07-02T05:15:34;15.30;99.90
70550;DHT22;58101;48.658;2.328;2023-07-02T05:18:27;15.30;99.90
70550;DHT22;58101;48.658;2.328;2023-07-02T05:20:56;15.20;99.90
70550;DHT22;58101;48.658;2.328;2023-07-02T05:23:22;15.40;99.90
70550;DHT22;58101;48.658;2.328;2023-07-02T05:25:47;15.40;99.90
70550;DHT22;58101;48.658;2.328;2023-07-02T05:28:13;15.50;99.90
70550;DHT22;58101;48.658;2.328;2023-07-02T05:30:39;15.60;99.90
70550;DHT22;58101;48.658;2.328;2023-07-02T05:35:35;15.70;99.90
70550;DHT22;58101;48.658;2.328;2023-07-02T05:38:04;15.80;99.90
70550;DHT22;58101;48.658;2.328;2023-07-02T05:40:29;15.70;99.90
70550;DHT22;58101;48.658;2.328;2023-07-02T05:42:56;16.00;99.90
70550;DHT22;58101;48.658;2.328;2023-07-02T05:45:21;16.00;99.90
70550;DHT22;58101;48.658;2.328;2023-07-02T05:47:48;15.90;99.90
70550;DHT22;58101;48.658;2.328;2023-07-02T05:50:53;16.20;99.90
70550;DHT22;58101;48.658;2.328;2023-07-02T05:53:30;16.30;99.90
70550;DHT22;58101;48.658;2.328;2023-07-02T05:55:55;16.40;99.90
70550;DHT22;58101;48.658;2.328;2023-07-02T06:01:45;16.60;99.90
70550;DHT22;58101;48.658;2.328;2023-07-02T06:04:11;16.90;99.90
70550;DHT22;58101;48.658;2.328;2023-07-02T06:06:58;17.00;99.90
70550;DHT22;58101;48.658;2.328;2023-07-02T06:09:30;17.00;99.90
70550;DHT22;58101;48.658;2.328;2023-07-02T06:11:56;17.10;99.90
70550;DHT22;58101;48.658;2.328;2023-07-02T06:14:25;17.20;99.90
70550;DHT22;58101;48.658;2.328;2023-07-02T06:16:52;17.20;99.90
70550;DHT22;58101;48.658;2.328;2023-07-02T06:19:18;17.10;99.90
70550;DHT22;58101;48.658;2.328;2023-07-02T06:22:25;17.20;99.90
70550;DHT22;58101;48.658;2.328;2023-07-02T06:24:53;17.30;99.90
70550;DHT22;58101;48.658;2.328;2023-07-02T06:27:22;17.30;99.90
70550;DHT22;58101;48.658;2.328;2023-07-02T06:29:47;17.30;99.90
70550;DHT22;58101;48.658;2.328;2023-07-02T06:32:35;17.40;99.90
70550;DHT22;58101;48.658;2.328;2023-07-02T06:35:04;17.50;99.90
70550;DHT22;58101;48.658;2.328;2023-07-02T06:37:34;17.60;99.90
70550;DHT22;58101;48.658;2.328;2023-07-02T06:40:24;17.60;99.90
70550;DHT22;58101;48.658;2.328;2023-07-02T06:42:49;17.70;99.90
70550;DHT22;58101;48.658;2.328;2023-07-02T06:45:17;17.70;99.90
70550;DHT22;58101;48.658;2.328;2023-07-02T06:47:58;17.60;99.90
70550;DHT22;58101;48.658;2.328;2023-07-02T06:50:26;17.70;99.90
70550;DHT22;58101;48.658;2.328;2023-07-02T06:59:37;17.90;99.90
70550;DHT22;58101;48.658;2.328;2023-07-02T07:02:03;18.10;99.90
70550;DHT22;58101;48.658;2.328;2023-07-02T07:04:37;18.30;99.90
70550;DHT22;58101;48.658;2.328;2023-07-02T07:07:03;18.20;99.70
70550;DHT22;58101;48.658;2.328;2023-07-02T07:09:29;18.20;99.80
70550;DHT22;58101;48.658;2.328;2023-07-02T07:12:27;18.30;99.90
70550;DHT22;58101;48.658;2.328;2023-07-02T07:14:53;18.40;99.80
70550;DHT22;58101;48.658;2.328;2023-07-02T07:20:41;18.60;98.10
70550;DHT22;58101;48.658;2.328;2023-07-02T07:23:22;18.70;97.20
70550;DHT22;58101;48.658;2.328;2023-07-02T07:25:50;18.70;97.00
70550;DHT22;58101;48.658;2.328;2023-07-02T07:28:16;18.90;98.00
70550;DHT22;58101;48.658;2.328;2023-07-02T07:33:53;19.40;94.10
70550;DHT22;58101;48.658;2.328;2023-07-02T07:36:20;19.60;93.50
70550;DHT22;58101;48.658;2.328;2023-07-02T07:38:46;19.70;92.00
70550;DHT22;58101;48.658;2.328;2023-07-02T07:41:14;19.70;91.10
70550;DHT22;58101;48.658;2.328;2023-07-02T07:43:40;19.70;91.00
70550;DHT22;58101;48.658;2.328;2023-07-02T07:46:09;19.60;90.20
70550;DHT22;58101;48.658;2.328;2023-07-02T07:48:47;19.30;90.60
70550;DHT22;58101;48.658;2.328;2023-07-02T07:51:12;19.30;91.60
70550;DHT22;58101;48.658;2.328;2023-07-02T07:53:38;19.20;92.00
70550;DHT22;58101;48.658;2.328;2023-07-02T07:56:10;19.50;92.80
70550;DHT22;58101;48.658;2.328;2023-07-02T07:58:36;19.90;90.80
70550;DHT22;58101;48.658;2.328;2023-07-02T08:01:02;20.10;87.10
70550;DHT22;58101;48.658;2.328;2023-07-02T08:03:27;20.30;86.10
70550;DHT22;58101;48.658;2.328;2023-07-02T08:05:56;20.60;84.40
70550;DHT22;58101;48.658;2.328;2023-07-02T08:08:22;20.80;79.10
70550;DHT22;58101;48.658;2.328;2023-07-02T08:10:47;20.90;74.80
70550;DHT22;58101;48.658;2.328;2023-07-02T08:13:15;20.90;76.10
70550;DHT22;58101;48.658;2.328;2023-07-02T08:15:42;20.90;77.60
70550;DHT22;58101;48.658;2.328;2023-07-02T08:18:07;20.60;77.70
70550;DHT22;58101;48.658;2.328;2023-07-02T08:20:44;20.80;78.10
70550;DHT22;58101;48.658;2.328;2023-07-02T08:23:09;21.00;78.50
70550;DHT22;58101;48.658;2.328;2023-07-02T08:25:35;21.20;75.80
70550;DHT22;58101;48.658;2.328;2023-07-02T08:28:10;21.30;74.50
70550;DHT22;58101;48.658;2.328;2023-07-02T08:30:35;20.90;73.20
70550;DHT22;58101;48.658;2.328;2023-07-02T08:33:04;20.70;75.00
70550;DHT22;58101;48.658;2.328;2023-07-02T08:35:29;20.50;77.50
70550;DHT22;58101;48.658;2.328;2023-07-02T08:37:58;20.40;74.10
70550;DHT22;58101;48.658;2.328;2023-07-02T08:40:30;20.50;75.60
70550;DHT22;58101;48.658;2.328;2023-07-02T08:42:58;20.30;74.00
70550;DHT22;58101;48.658;2.328;2023-07-02T08:45:24;20.60;73.50
70550;DHT22;58101;48.658;2.328;2023-07-02T08:47:51;20.60;72.90
70550;DHT22;58101;48.658;2.328;2023-07-02T08:50:19;20.60;73.70
70550;DHT22;58101;48.658;2.328;2023-07-02T08:52:44;20.70;72.90
70550;DHT22;58101;48.658;2.328;2023-07-02T08:55:10;20.90;71.70
70550;DHT22;58101;48.658;2.328;2023-07-02T09:00:26;21.40;70.60
70550;DHT22;58101;48.658;2.328;2023-07-02T09:02:54;21.70;68.30
70550;DHT22;58101;48.658;2.328;2023-07-02T09:05:19;22.00;67.80
70550;DHT22;58101;48.658;2.328;2023-07-02T09:07:49;22.10;64.80
70550;DHT22;58101;48.658;2.328;2023-07-02T09:10:29;22.00;64.10
70550;DHT22;58101;48.658;2.328;2023-07-02T09:13:07;22.00;65.30
70550;DHT22;58101;48.658;2.328;2023-07-02T09:15:39;22.00;63.10
70550;DHT22;58101;48.658;2.328;2023-07-02T09:18:22;21.80;60.70
70550;DHT22;58101;48.658;2.328;2023-07-02T09:20:50;21.80;62.10
70550;DHT22;58101;48.658;2.328;2023-07-02T09:23:16;21.70;62.20
70550;DHT22;58101;48.658;2.328;2023-07-02T09:25:42;21.70;62.50
70550;DHT22;58101;48.658;2.328;2023-07-02T09:28:21;21.90;60.10
70550;DHT22;58101;48.658;2.328;2023-07-02T09:31:05;22.10;58.40
70550;DHT22;58101;48.658;2.328;2023-07-02T09:33:30;22.80;58.20
70550;DHT22;58101;48.658;2.328;2023-07-02T09:35:56;24.10;55.80
70550;DHT22;58101;48.658;2.328;2023-07-02T09:38:23;25.20;52.80
70550;DHT22;58101;48.658;2.328;2023-07-02T09:40:49;25.70;48.90
70550;DHT22;58101;48.658;2.328;2023-07-02T09:43:16;25.70;47.10
70550;DHT22;58101;48.658;2.328;2023-07-02T09:45:47;25.50;45.90
70550;DHT22;58101;48.658;2.328;2023-07-02T09:48:14;24.90;46.80
70550;DHT22;58101;48.658;2.328;2023-07-02T09:53:27;24.30;48.90
70550;DHT22;58101;48.658;2.328;2023-07-02T09:55:53;25.10;48.70
70550;DHT22;58101;48.658;2.328;2023-07-02T09:58:18;26.50;46.60
70550;DHT22;58101;48.658;2.328;2023-07-02T10:00:47;28.30;44.00
70550;DHT22;58101;48.658;2.328;2023-07-02T10:03:13;29.30;40.00
70550;DHT22;58101;48.658;2.328;2023-07-02T10:05:38;29.90;36.20
70550;DHT22;58101;48.658;2.328;2023-07-02T10:08:13;30.30;35.60
70550;DHT22;58101;48.658;2.328;2023-07-02T10:10:39;29.80;32.20
70550;DHT22;58101;48.658;2.328;2023-07-02T10:13:08;29.40;32.90
70550;DHT22;58101;48.658;2.328;2023-07-02T10:15:36;28.90;33.00
70550;DHT22;58101;48.658;2.328;2023-07-02T10:18:05;28.00;34.60
70550;DHT22;58101;48.658;2.328;2023-07-02T10:20:39;27.40;36.90
70550;DHT22;58101;48.658;2.328;2023-07-02T10:23:06;26.80;38.20
70550;DHT22;58101;48.658;2.328;2023-07-02T10:25:37;26.40;39.80
70550;DHT22;58101;48.658;2.328;2023-07-02T10:28:34;26.90;40.60
70550;DHT22;58101;48.658;2.328;2023-07-02T10:31:00;27.90;37.60
70550;DHT22;58101;48.658;2.328;2023-07-02T10:33:25;28.50;36.60
70550;DHT22;58101;48.658;2.328;2023-07-02T10:35:51;28.90;35.00
70550;DHT22;58101;48.658;2.328;2023-07-02T10:38:24;29.20;34.90
70550;DHT22;58101;48.658;2.328;2023-07-02T10:41:00;28.90;34.30
70550;DHT22;58101;48.658;2.328;2023-07-02T10:43:30;28.40;34.60
70550;DHT22;58101;48.658;2.328;2023-07-02T10:45:56;27.50;35.50
70550;DHT22;58101;48.658;2.328;2023-07-02T10:48:21;26.50;37.00
70550;DHT22;58101;48.658;2.328;2023-07-02T10:50:47;26.00;38.70
70550;DHT22;58101;48.658;2.328;2023-07-02T10:53:19;25.80;40.30
70550;DHT22;58101;48.658;2.328;2023-07-02T10:55:45;26.40;41.60
70550;DHT22;58101;48.658;2.328;2023-07-02T10:58:12;27.30;40.80
70550;DHT22;58101;48.658;2.328;2023-07-02T11:00:49;28.20;39.20
70550;DHT22;58101;48.658;2.328;2023-07-02T11:03:19;29.10;36.40
70550;DHT22;58101;48.658;2.328;2023-07-02T11:05:46;29.50;35.90
70550;DHT22;58101;48.658;2.328;2023-07-02T11:08:12;29.70;33.60
70550;DHT22;58101;48.658;2.328;2023-07-02T11:10:38;29.40;33.40
70550;DHT22;58101;48.658;2.328;2023-07-02T11:13:17;29.20;34.10
70550;DHT22;58101;48.658;2.328;2023-07-02T11:15:44;28.80;34.50
70550;DHT22;58101;48.658;2.328;2023-07-02T11:18:15;28.50;35.20
70550;DHT22;58101;48.658;2.328;2023-07-02T11:20:42;28.10;34.90
70550;DHT22;58101;48.658;2.328;2023-07-02T11:23:22;27.70;36.20
70550;DHT22;58101;48.658;2.328;2023-07-02T11:26:14;27.10;36.30
70550;DHT22;58101;48.658;2.328;2023-07-02T11:28:51;26.60;37.00
70550;DHT22;58101;48.658;2.328;2023-07-02T11:31:25;26.90;37.90
70550;DHT22;58101;48.658;2.328;2023-07-02T11:38:01;27.40;36.10
70550;DHT22;58101;48.658;2.328;2023-07-02T11:40:32;28.00;34.00
70550;DHT22;58101;48.658;2.328;2023-07-02T11:42:57;28.10;33.80
70550;DHT22;58101;48.658;2.328;2023-07-02T11:45:23;27.60;34.30
70550;DHT22;58101;48.658;2.328;2023-07-02T11:47:48;27.30;35.30
70550;DHT22;58101;48.658;2.328;2023-07-02T11:50:14;27.10;36.30
70550;DHT22;58101;48.658;2.328;2023-07-02T11:52:40;27.10;35.70
70550;DHT22;58101;48.658;2.328;2023-07-02T11:55:05;27.40;35.80
70550;DHT22;58101;48.658;2.328;2023-07-02T11:57:34;27.90;34.80
70550;DHT22;58101;48.658;2.328;2023-07-02T12:00:22;28.10;34.00
70550;DHT22;58101;48.658;2.328;2023-07-02T12:02:48;28.40;34.80
70550;DHT22;58101;48.658;2.328;2023-07-02T12:05:23;28.50;33.70
70550;DHT22;58101;48.658;2.328;2023-07-02T12:15:02;27.30;34.30
70550;DHT22;58101;48.658;2.328;2023-07-02T12:17:27;27.10;34.20
70550;DHT22;58101;48.658;2.328;2023-07-02T12:19:53;27.30;34.10
70550;DHT22;58101;48.658;2.328;2023-07-02T12:22:19;27.20;34.00
70550;DHT22;58101;48.658;2.328;2023-07-02T12:31:11;27.30;35.30
70550;DHT22;58101;48.658;2.328;2023-07-02T12:33:38;27.80;35.50
70550;DHT22;58101;48.658;2.328;2023-07-02T12:36:04;27.90;33.50
70550;DHT22;58101;48.658;2.328;2023-07-02T12:38:30;28.10;33.50
70550;DHT22;58101;48.658;2.328;2023-07-02T12:40:55;28.10;31.20
70550;DHT22;58101;48.658;2.328;2023-07-02T12:43:21;27.80;32.10
70550;DHT22;58101;48.658;2.328;2023-07-02T12:45:50;27.50;32.40
70550;DHT22;58101;48.658;2.328;2023-07-02T12:48:16;27.20;33.10
70550;DHT22;58101;48.658;2.328;2023-07-02T12:50:58;27.00;33.80
70550;DHT22;58101;48.658;2.328;2023-07-02T12:53:25;26.90;33.90
70550;DHT22;58101;48.658;2.328;2023-07-02T12:55:51;27.00;34.10
70550;DHT22;58101;48.658;2.328;2023-07-02T12:58:17;27.30;33.10
70550;DHT22;58101;48.658;2.328;2023-07-02T13:00:43;27.30;32.80
70550;DHT22;58101;48.658;2.328;2023-07-02T13:10:07;26.20;32.60
70550;DHT22;58101;48.658;2.328;2023-07-02T13:12:33;26.10;34.30
70550;DHT22;58101;48.658;2.328;2023-07-02T13:14:59;25.60;34.90
70550;DHT22;58101;48.658;2.328;2023-07-02T13:17:24;25.60;35.70
70550;DHT22;58101;48.658;2.328;2023-07-02T13:19:50;25.70;36.10
70550;DHT22;58101;48.658;2.328;2023-07-02T13:22:16;25.90;36.60
70550;DHT22;58101;48.658;2.328;2023-07-02T13:24:41;26.30;36.20
70550;DHT22;58101;48.658;2.328;2023-07-02T13:27:12;26.80;36.20
70550;DHT22;58101;48.658;2.328;2023-07-02T13:29:39;27.10;35.30
70550;DHT22;58101;48.658;2.328;2023-07-02T13:32:05;27.30;33.60
70550;DHT22;58101;48.658;2.328;2023-07-02T13:34:34;27.50;33.80
70550;DHT22;58101;48.658;2.328;2023-07-02T13:39:38;27.70;31.30
70550;DHT22;58101;48.658;2.328;2023-07-02T13:42:04;27.40;32.40
70550;DHT22;58101;48.658;2.328;2023-07-02T13:51:10;27.50;32.00
70550;DHT22;58101;48.658;2.328;2023-07-02T13:53:35;27.40;32.90
70550;DHT22;58101;48.658;2.328;2023-07-02T13:56:04;27.50;33.10
70550;DHT22;58101;48.658;2.328;2023-07-02T14:01:19;27.40;31.10
70550;DHT22;58101;48.658;2.328;2023-07-02T14:03:44;26.70;32.50
70550;DHT22;58101;48.658;2.328;2023-07-02T14:06:10;26.60;33.60
70550;DHT22;58101;48.658;2.328;2023-07-02T14:08:38;26.60;33.40
70550;DHT22;58101;48.658;2.328;2023-07-02T14:11:04;26.60;32.90
70550;DHT22;58101;48.658;2.328;2023-07-02T14:13:30;26.30;33.70
70550;DHT22;58101;48.658;2.328;2023-07-02T14:15:56;25.80;34.30
70550;DHT22;58101;48.658;2.328;2023-07-02T14:18:21;25.90;35.00
70550;DHT22;58101;48.658;2.328;2023-07-02T14:20:47;26.00;34.90
70550;DHT22;58101;48.658;2.328;2023-07-02T14:23:15;26.20;34.50
70550;DHT22;58101;48.658;2.328;2023-07-02T14:25:41;26.10;35.20
70550;DHT22;58101;48.658;2.328;2023-07-02T14:28:12;25.90;34.40
70550;DHT22;58101;48.658;2.328;2023-07-02T14:30:38;25.90;33.80
70550;DHT22;58101;48.658;2.328;2023-07-02T14:33:04;25.90;33.60
70550;DHT22;58101;48.658;2.328;2023-07-02T14:35:30;26.10;34.90
70550;DHT22;58101;48.658;2.328;2023-07-02T14:38:05;26.20;33.60
70550;DHT22;58101;48.658;2.328;2023-07-02T14:40:57;26.50;34.00
70550;DHT22;58101;48.658;2.328;2023-07-02T14:43:23;26.80;33.80
70550;DHT22;58101;48.658;2.328;2023-07-02T14:49:12;27.10;33.30
70550;DHT22;58101;48.658;2.328;2023-07-02T14:51:38;27.00;33.30
70550;DHT22;58101;48.658;2.328;2023-07-02T14:54:03;26.80;33.80
70550;DHT22;58101;48.658;2.328;2023-07-02T14:56:34;26.70;34.50
70550;DHT22;58101;48.658;2.328;2023-07-02T14:59:04;26.50;33.70
70550;DHT22;58101;48.658;2.328;2023-07-02T15:01:35;26.50;35.50
70550;DHT22;58101;48.658;2.328;2023-07-02T15:04:00;26.10;32.50
70550;DHT22;58101;48.658;2.328;2023-07-02T15:06:26;25.80;33.70
70550;DHT22;58101;48.658;2.328;2023-07-02T15:08:52;25.60;34.90
70550;DHT22;58101;48.658;2.328;2023-07-02T15:11:18;25.30;34.70
70550;DHT22;58101;48.658;2.328;2023-07-02T15:13:44;25.40;35.50
70550;DHT22;58101;48.658;2.328;2023-07-02T15:16:19;25.60;36.10
70550;DHT22;58101;48.658;2.328;2023-07-02T15:18:46;25.90;35.40
70550;DHT22;58101;48.658;2.328;2023-07-02T15:21:11;26.10;34.90
70550;DHT22;58101;48.658;2.328;2023-07-02T15:23:37;26.30;33.40
70550;DHT22;58101;48.658;2.328;2023-07-02T15:26:04;26.10;33.30
70550;DHT22;58101;48.658;2.328;2023-07-02T15:28:34;25.90;34.80
70550;DHT22;58101;48.658;2.328;2023-07-02T15:31:07;25.80;35.00
70550;DHT22;58101;48.658;2.328;2023-07-02T15:34:20;25.80;35.40
70550;DHT22;58101;48.658;2.328;2023-07-02T15:36:59;25.80;35.70
70550;DHT22;58101;48.658;2.328;2023-07-02T15:39:25;25.90;35.20
70550;DHT22;58101;48.658;2.328;2023-07-02T15:41:57;25.90;35.00
70550;DHT22;58101;48.658;2.328;2023-07-02T15:44:26;25.80;35.30
70550;DHT22;58101;48.658;2.328;2023-07-02T15:46:54;25.70;34.50
70550;DHT22;58101;48.658;2.328;2023-07-02T15:49:23;25.50;34.60
70550;DHT22;58101;48.658;2.328;2023-07-02T15:51:49;25.30;35.10
70550;DHT22;58101;48.658;2.328;2023-07-02T15:54:14;25.20;35.10
70550;DHT22;58101;48.658;2.328;2023-07-02T15:56:40;25.20;36.30
70550;DHT22;58101;48.658;2.328;2023-07-02T15:59:06;25.30;36.20
70550;DHT22;58101;48.658;2.328;2023-07-02T16:01:34;25.30;35.90
70550;DHT22;58101;48.658;2.328;2023-07-02T16:04:00;25.40;35.70
70550;DHT22;58101;48.658;2.328;2023-07-02T16:06:26;25.40;35.90
70550;DHT22;58101;48.658;2.328;2023-07-02T16:08:58;25.50;35.70
70550;DHT22;58101;48.658;2.328;2023-07-02T16:11:23;25.60;35.80
70550;DHT22;58101;48.658;2.328;2023-07-02T16:13:51;25.70;35.20
70550;DHT22;58101;48.658;2.328;2023-07-02T16:16:17;25.50;34.80
70550;DHT22;58101;48.658;2.328;2023-07-02T16:18:43;25.50;35.00
70550;DHT22;58101;48.658;2.328;2023-07-02T16:21:10;25.40;35.10
70550;DHT22;58101;48.658;2.328;2023-07-02T16:23:41;25.40;35.30
70550;DHT22;58101;48.658;2.328;2023-07-02T16:26:09;25.30;35.50
70550;DHT22;58101;48.658;2.328;2023-07-02T16:28:36;25.10;35.90
70550;DHT22;58101;48.658;2.328;2023-07-02T16:31:03;25.00;36.00
70550;DHT22;58101;48.658;2.328;2023-07-02T16:33:29;25.00;36.10
70550;DHT22;58101;48.658;2.328;2023-07-02T16:36:02;25.00;36.70
70550;DHT22;58101;48.658;2.328;2023-07-02T16:38:49;25.00;35.80
70550;DHT22;58101;48.658;2.328;2023-07-02T16:41:16;25.00;35.70
70550;DHT22;58101;48.658;2.328;2023-07-02T16:43:41;24.80;36.20
70550;DHT22;58101;48.658;2.328;2023-07-02T16:46:07;24.70;37.00
70550;DHT22;58101;48.658;2.328;2023-07-02T16:48:33;24.70;37.40
70550;DHT22;58101;48.658;2.328;2023-07-02T16:51:03;24.50;37.10
70550;DHT22;58101;48.658;2.328;2023-07-02T16:53:35;24.20;37.60
70550;DHT22;58101;48.658;2.328;2023-07-02T16:56:05;23.90;38.10
70550;DHT22;58101;48.658;2.328;2023-07-02T16:58:32;23.90;38.70
70550;DHT22;58101;48.658;2.328;2023-07-02T17:01:03;23.90;38.70
70550;DHT22;58101;48.658;2.328;2023-07-02T17:03:29;23.80;38.50
70550;DHT22;58101;48.658;2.328;2023-07-02T17:06:02;23.80;38.70
70550;DHT22;58101;48.658;2.328;2023-07-02T17:08:40;23.90;38.80
70550;DHT22;58101;48.658;2.328;2023-07-02T17:11:07;24.10;38.80
70550;DHT22;58101;48.658;2.328;2023-07-02T17:13:33;24.20;38.90